sensor_id;sensor_type;location;lat;lon;timestamp;temperature;humidity
296;DHT22;132;48.770;9.200;2022-11-15T00:02:53;10.10;1.00
296;DHT22;132;48.770;9.200;2022-11-15T00:06:03;10.60;1.00
296;DHT22;132;48.770;9.200;2022-11-15T00:09:09;10.90;1.00
296;DHT22;132;48.770;9.200;2022-11-15T00:12:14;10.10;1.00
296;DHT22;132;48.770;9.200;2022-11-15T00:15:19;10.20;1.00
296;DHT22;132;48.770;9.200;2022-11-15T00:18:25;10.00;1.00
296;DHT22;132;48.770;9.200;2022-11-15T00:21:30;10.90;1.00
296;DHT22;132;48.770;9.200;2022-11-15T00:24:36;10.10;1.00
296;DHT22;132;48.770;9.200;2022-11-15T00:27:41;10.00;1.00
296;DHT22;132;48.770;9.200;2022-11-15T00:30:47;10.40;1.00
296;DHT22;132;48.770;9.200;2022-11-15T00:33:52;10.20;1.00
296;DHT22;132;48.770;9.200;2022-11-15T00:36:57;10.50;1.00
296;DHT22;132;48.770;9.200;2022-11-15T00:40:02;10.40;1.00
296;DHT22;132;48.770;9.200;2022-11-15T00:43:08;10.20;1.00
296;DHT22;132;48.770;9.200;2022-11-15T00:46:13;10.10;1.00
296;DHT22;132;48.770;9.200;2022-11-15T00:49:18;10.00;1.00
296;DHT22;132;48.770;9.200;2022-11-15T00:52:23;10.00;1.00
296;DHT22;132;48.770;9.200;2022-11-15T00:55:28;10.10;1.00
296;DHT22;132;48.770;9.200;2022-11-15T00:58:33;9.90;1.00
296;DHT22;132;48.770;9.200;2022-11-15T01:01:39;10.20;1.00
296;DHT22;132;48.770;9.200;2022-11-15T01:04:44;10.00;1.00
296;DHT22;132;48.770;9.200;2022-11-15T01:07:56;9.50;1.00
296;DHT22;132;48.770;9.200;2022-11-15T01:11:07;9.60;1.00
296;DHT22;132;48.770;9.200;2022-11-15T01:14:13;10.40;1.00
296;DHT22;132;48.770;9.200;2022-11-15T01:17:19;9.40;1.00
296;DHT22;132;48.770;9.200;2022-11-15T01:20:24;9.40;1.00
296;DHT22;132;48.770;9.200;2022-11-15T01:23:29;9.30;1.00
296;DHT22;132;48.770;9.200;2022-11-15T01:26:35;10.10;1.00
296;DHT22;132;48.770;9.200;2022-11-15T01:29:40;9.10;1.00
296;DHT22;132;48.770;9.200;2022-11-15T01:32:45;9.30;1.00
296;DHT22;132;48.770;9.200;2022-11-15T01:35:50;10.50;1.00
296;DHT22;132;48.770;9.200;2022-11-15T01:38:57;8.80;1.00
296;DHT22;132;48.770;9.200;2022-11-15T01:42:03;8.80;1.00
296;DHT22;132;48.770;9.200;2022-11-15T01:45:14;8.70;1.00
296;DHT22;132;48.770;9.200;2022-11-15T01:48:20;8.60;1.00
296;DHT22;132;48.770;9.200;2022-11-15T01:51:26;8.50;1.00
296;DHT22;132;48.770;9.200;2022-11-15T01:54:32;8.50;1.00
296;DHT22;132;48.770;9.200;2022-11-15T01:57:39;8.50;1.00
296;DHT22;132;48.770;9.200;2022-11-15T02:00:44;9.30;1.00
296;DHT22;132;48.770;9.200;2022-11-15T02:04:04;8.30;1.00
296;DHT22;132;48.770;9.200;2022-11-15T02:07:13;8.30;1.00
296;DHT22;132;48.770;9.200;2022-11-15T02:10:22;8.20;1.00
296;DHT22;132;48.770;9.200;2022-11-15T02:13:27;8.30;1.00
296;DHT22;132;48.770;9.200;2022-11-15T02:35:07;8.50;1.00
296;DHT22;132;48.770;9.200;2022-11-15T02:41:46;8.60;1.00
296;DHT22;132;48.770;9.200;2022-11-15T02:44:53;8.50;1.00
296;DHT22;132;48.770;9.200;2022-11-15T02:48:01;9.30;1.00
296;DHT22;132;48.770;9.200;2022-11-15T02:51:09;8.50;1.00
296;DHT22;132;48.770;9.200;2022-11-15T02:54:20;9.50;1.00
296;DHT22;132;48.770;9.200;2022-11-15T03:01:38;8.50;1.00
296;DHT22;132;48.770;9.200;2022-11-15T03:11:17;8.60;1.00
296;DHT22;132;48.770;9.200;2022-11-15T03:14:34;8.40;1.00
296;DHT22;132;48.770;9.200;2022-11-15T03:17:51;10.50;1.00
296;DHT22;132;48.770;9.200;2022-11-15T03:21:00;8.40;1.00
296;DHT22;132;48.770;9.200;2022-11-15T03:24:08;8.30;1.00
296;DHT22;132;48.770;9.200;2022-11-15T03:27:19;8.30;1.00
296;DHT22;132;48.770;9.200;2022-11-15T03:30:26;8.30;1.00
296;DHT22;132;48.770;9.200;2022-11-15T03:33:32;9.40;1.00
296;DHT22;132;48.770;9.200;2022-11-15T03:36:37;9.20;1.00
296;DHT22;132;48.770;9.200;2022-11-15T03:39:43;8.10;1.00
296;DHT22;132;48.770;9.200;2022-11-15T03:42:55;8.40;1.00
296;DHT22;132;48.770;9.200;2022-11-15T03:46:11;8.40;1.00
296;DHT22;132;48.770;9.200;2022-11-15T03:49:35;8.20;1.00
296;DHT22;132;48.770;9.200;2022-11-15T03:52:41;8.30;1.00
296;DHT22;132;48.770;9.200;2022-11-15T03:55:47;8.80;1.00
296;DHT22;132;48.770;9.200;2022-11-15T03:58:52;8.00;1.00
296;DHT22;132;48.770;9.200;2022-11-15T04:01:57;8.20;1.00
296;DHT22;132;48.770;9.200;2022-11-15T04:05:03;8.30;1.00
296;DHT22;132;48.770;9.200;2022-11-15T04:08:08;8.30;1.00
296;DHT22;132;48.770;9.200;2022-11-15T04:11:13;9.20;1.00
296;DHT22;132;48.770;9.200;2022-11-15T04:14:19;8.40;1.00
296;DHT22;132;48.770;9.200;2022-11-15T04:17:24;8.50;1.00
296;DHT22;132;48.770;9.200;2022-11-15T04:20:31;9.00;1.00
296;DHT22;132;48.770;9.200;2022-11-15T04:23:55;9.00;1.00
296;DHT22;132;48.770;9.200;2022-11-15T04:27:10;8.50;1.00
296;DHT22;132;48.770;9.200;2022-11-15T04:30:18;8.40;1.00
296;DHT22;132;48.770;9.200;2022-11-15T04:33:23;8.50;1.00
296;DHT22;132;48.770;9.200;2022-11-15T04:36:28;8.60;1.00
296;DHT22;132;48.770;9.200;2022-11-15T04:39:52;8.60;1.00
296;DHT22;132;48.770;9.200;2022-11-15T04:42:57;9.60;1.00
296;DHT22;132;48.770;9.200;2022-11-15T04:46:03;8.60;1.00
296;DHT22;132;48.770;9.200;2022-11-15T04:49:08;8.60;1.00
296;DHT22;132;48.770;9.200;2022-11-15T04:52:14;8.50;1.00
296;DHT22;132;48.770;9.200;2022-11-15T04:55:19;8.50;1.00
296;DHT22;132;48.770;9.200;2022-11-15T04:58:24;9.70;1.00
296;DHT22;132;48.770;9.200;2022-11-15T05:01:30;8.20;1.00
296;DHT22;132;48.770;9.200;2022-11-15T05:04:35;8.60;1.00
296;DHT22;132;48.770;9.200;2022-11-15T05:07:41;9.50;1.00
296;DHT22;132;48.770;9.200;2022-11-15T05:10:46;8.60;1.00
296;DHT22;132;48.770;9.200;2022-11-15T05:13:53;8.10;1.00
296;DHT22;132;48.770;9.200;2022-11-15T05:16:58;8.20;1.00
296;DHT22;132;48.770;9.200;2022-11-15T05:20:03;8.30;1.00
296;DHT22;132;48.770;9.200;2022-11-15T05:23:09;8.30;1.00
296;DHT22;132;48.770;9.200;2022-11-15T05:26:16;8.30;1.00
296;DHT22;132;48.770;9.200;2022-11-15T05:29:22;8.30;1.00
296;DHT22;132;48.770;9.200;2022-11-15T05:32:28;8.20;1.00
296;DHT22;132;48.770;9.200;2022-11-15T05:35:38;8.20;1.00
296;DHT22;132;48.770;9.200;2022-11-15T05:38:46;8.10;1.00
296;DHT22;132;48.770;9.200;2022-11-15T05:42:00;9.30;1.00
296;DHT22;132;48.770;9.200;2022-11-15T05:45:06;8.20;1.00
296;DHT22;132;48.770;9.200;2022-11-15T05:48:13;8.40;1.00
296;DHT22;132;48.770;9.200;2022-11-15T05:51:19;9.20;1.00
296;DHT22;132;48.770;9.200;2022-11-15T05:54:25;8.60;1.00
296;DHT22;132;48.770;9.200;2022-11-15T05:57:30;8.60;1.00
296;DHT22;132;48.770;9.200;2022-11-15T06:00:36;8.70;1.00
296;DHT22;132;48.770;9.200;2022-11-15T06:03:41;8.60;1.00
296;DHT22;132;48.770;9.200;2022-11-15T06:06:46;8.40;1.00
296;DHT22;132;48.770;9.200;2022-11-15T06:09:51;8.20;1.00
296;DHT22;132;48.770;9.200;2022-11-15T06:12:58;9.10;1.00
296;DHT22;132;48.770;9.200;2022-11-15T06:16:04;9.00;1.00
296;DHT22;132;48.770;9.200;2022-11-15T06:19:09;8.30;1.00
296;DHT22;132;48.770;9.200;2022-11-15T06:22:14;8.30;1.00
296;DHT22;132;48.770;9.200;2022-11-15T06:25:19;8.80;1.00
296;DHT22;132;48.770;9.200;2022-11-15T06:28:24;8.50;1.00
296;DHT22;132;48.770;9.200;2022-11-15T06:31:30;8.30;1.00
296;DHT22;132;48.770;9.200;2022-11-15T06:34:35;8.20;1.00
296;DHT22;132;48.770;9.200;2022-11-15T06:37:41;8.30;1.00
296;DHT22;132;48.770;9.200;2022-11-15T06:40:46;8.30;1.00
296;DHT22;132;48.770;9.200;2022-11-15T06:43:51;9.40;1.00
296;DHT22;132;48.770;9.200;2022-11-15T06:46:56;9.10;1.00
296;DHT22;132;48.770;9.200;2022-11-15T06:50:02;8.30;1.00
296;DHT22;132;48.770;9.200;2022-11-15T06:53:07;8.40;1.00
296;DHT22;132;48.770;9.200;2022-11-15T06:56:12;9.70;1.00
296;DHT22;132;48.770;9.200;2022-11-15T06:59:17;8.60;1.00
296;DHT22;132;48.770;9.200;2022-11-15T07:02:23;8.50;1.00
296;DHT22;132;48.770;9.200;2022-11-15T07:05:28;9.30;1.00
296;DHT22;132;48.770;9.200;2022-11-15T07:08:34;9.10;1.00
296;DHT22;132;48.770;9.200;2022-11-15T07:11:39;10.10;1.00
296;DHT22;132;48.770;9.200;2022-11-15T07:14:44;8.80;1.00
296;DHT22;132;48.770;9.200;2022-11-15T07:17:50;9.10;1.00
296;DHT22;132;48.770;9.200;2022-11-15T07:20:55;9.00;1.00
296;DHT22;132;48.770;9.200;2022-11-15T07:24:00;9.30;1.00
296;DHT22;132;48.770;9.200;2022-11-15T07:27:06;9.50;1.00
296;DHT22;132;48.770;9.200;2022-11-15T07:30:12;9.40;1.00
296;DHT22;132;48.770;9.200;2022-11-15T07:33:17;9.30;1.00
296;DHT22;132;48.770;9.200;2022-11-15T07:36:23;9.40;1.00
296;DHT22;132;48.770;9.200;2022-11-15T07:39:28;10.00;1.00
296;DHT22;132;48.770;9.200;2022-11-15T07:42:33;9.70;1.00
296;DHT22;132;48.770;9.200;2022-11-15T07:45:57;9.80;1.00
296;DHT22;132;48.770;9.200;2022-11-15T07:49:03;10.50;1.00
296;DHT22;132;48.770;9.200;2022-11-15T07:52:08;10.10;1.00
296;DHT22;132;48.770;9.200;2022-11-15T07:55:14;10.10;1.00
296;DHT22;132;48.770;9.200;2022-11-15T07:58:19;10.30;1.00
296;DHT22;132;48.770;9.200;2022-11-15T08:01:24;10.40;1.00
296;DHT22;132;48.770;9.200;2022-11-15T08:04:29;11.20;1.00
296;DHT22;132;48.770;9.200;2022-11-15T08:07:35;11.70;1.00
296;DHT22;132;48.770;9.200;2022-11-15T08:10:39;11.40;1.00
296;DHT22;132;48.770;9.200;2022-11-15T08:13:45;10.80;1.00
296;DHT22;132;48.770;9.200;2022-11-15T08:16:50;11.80;1.00
296;DHT22;132;48.770;9.200;2022-11-15T08:19:55;11.40;1.00
296;DHT22;132;48.770;9.200;2022-11-15T08:23:03;10.90;1.00
296;DHT22;132;48.770;9.200;2022-11-15T08:26:09;10.80;1.00
296;DHT22;132;48.770;9.200;2022-11-15T08:29:14;11.10;1.00
296;DHT22;132;48.770;9.200;2022-11-15T08:32:20;10.80;1.00
296;DHT22;132;48.770;9.200;2022-11-15T08:35:25;11.00;1.00
296;DHT22;132;48.770;9.200;2022-11-15T08:38:30;10.80;1.00
296;DHT22;132;48.770;9.200;2022-11-15T08:41:37;11.10;1.00
296;DHT22;132;48.770;9.200;2022-11-15T08:44:42;10.80;1.00
296;DHT22;132;48.770;9.200;2022-11-15T08:47:47;10.80;1.00
296;DHT22;132;48.770;9.200;2022-11-15T08:50:54;10.80;1.00
296;DHT22;132;48.770;9.200;2022-11-15T08:54:00;10.80;1.00
296;DHT22;132;48.770;9.200;2022-11-15T08:57:06;10.80;1.00
296;DHT22;132;48.770;9.200;2022-11-15T09:00:12;10.80;1.00
296;DHT22;132;48.770;9.200;2022-11-15T09:03:18;10.90;1.00
296;DHT22;132;48.770;9.200;2022-11-15T09:06:23;11.20;1.00
296;DHT22;132;48.770;9.200;2022-11-15T09:09:28;11.10;1.00
296;DHT22;132;48.770;9.200;2022-11-15T09:12:33;11.50;1.00
296;DHT22;132;48.770;9.200;2022-11-15T09:15:38;11.40;1.00
296;DHT22;132;48.770;9.200;2022-11-15T09:18:44;11.60;1.00
296;DHT22;132;48.770;9.200;2022-11-15T09:21:49;11.90;1.00
296;DHT22;132;48.770;9.200;2022-11-15T09:24:54;12.10;1.00
296;DHT22;132;48.770;9.200;2022-11-15T09:27:59;12.20;1.00
296;DHT22;132;48.770;9.200;2022-11-15T09:31:05;12.40;1.00
296;DHT22;132;48.770;9.200;2022-11-15T09:34:11;12.50;1.00
296;DHT22;132;48.770;9.200;2022-11-15T09:37:16;12.50;1.00
296;DHT22;132;48.770;9.200;2022-11-15T09:40:22;12.70;1.00
296;DHT22;132;48.770;9.200;2022-11-15T09:47:21;12.70;1.00
296;DHT22;132;48.770;9.200;2022-11-15T09:53:27;13.10;1.00
296;DHT22;132;48.770;9.200;2022-11-15T09:56:20;13.20;1.00
296;DHT22;132;48.770;9.200;2022-11-15T10:02:47;13.20;1.00
296;DHT22;132;48.770;9.200;2022-11-15T10:05:45;13.30;1.00
296;DHT22;132;48.770;9.200;2022-11-15T10:11:54;13.60;1.00
296;DHT22;132;48.770;9.200;2022-11-15T10:14:41;13.70;1.00
296;DHT22;132;48.770;9.200;2022-11-15T10:23:33;13.80;1.00
296;DHT22;132;48.770;9.200;2022-11-15T10:26:21;13.90;1.00
296;DHT22;132;48.770;9.200;2022-11-15T10:29:09;14.10;1.00
296;DHT22;132;48.770;9.200;2022-11-15T10:31:56;14.10;1.00
296;DHT22;132;48.770;9.200;2022-11-15T10:34:43;13.90;1.00
296;DHT22;132;48.770;9.200;2022-11-15T10:37:31;13.90;1.00
296;DHT22;132;48.770;9.200;2022-11-15T10:40:23;13.90;1.00
296;DHT22;132;48.770;9.200;2022-11-15T10:46:20;14.00;1.00
296;DHT22;132;48.770;9.200;2022-11-15T10:52:18;14.00;1.00
296;DHT22;132;48.770;9.200;2022-11-15T10:55:30;14.10;1.00
296;DHT22;132;48.770;9.200;2022-11-15T10:58:38;14.10;1.00
296;DHT22;132;48.770;9.200;2022-11-15T11:01:27;14.10;1.00
296;DHT22;132;48.770;9.200;2022-11-15T11:04:15;14.20;1.00
296;DHT22;132;48.770;9.200;2022-11-15T11:07:02;14.20;1.00
296;DHT22;132;48.770;9.200;2022-11-15T11:10:19;14.20;1.00
296;DHT22;132;48.770;9.200;2022-11-15T11:13:28;14.20;1.00
296;DHT22;132;48.770;9.200;2022-11-15T11:19:10;14.10;1.00
296;DHT22;132;48.770;9.200;2022-11-15T11:28:14;14.20;1.00
296;DHT22;132;48.770;9.200;2022-11-15T11:31:13;14.40;1.00
296;DHT22;132;48.770;9.200;2022-11-15T11:37:03;14.30;1.00
296;DHT22;132;48.770;9.200;2022-11-15T11:40:16;14.40;1.00
296;DHT22;132;48.770;9.200;2022-11-15T11:43:27;14.40;1.00
296;DHT22;132;48.770;9.200;2022-11-15T11:49:15;14.50;1.00
296;DHT22;132;48.770;9.200;2022-11-15T11:52:05;14.60;1.00
296;DHT22;132;48.770;9.200;2022-11-15T11:55:14;14.70;1.00
296;DHT22;132;48.770;9.200;2022-11-15T12:01:25;14.80;1.00
296;DHT22;132;48.770;9.200;2022-11-15T12:04:30;14.80;1.00
296;DHT22;132;48.770;9.200;2022-11-15T12:07:24;15.00;1.00
296;DHT22;132;48.770;9.200;2022-11-15T12:10:28;14.80;1.00
296;DHT22;132;48.770;9.200;2022-11-15T12:13:19;14.80;1.00
296;DHT22;132;48.770;9.200;2022-11-15T12:16:23;14.90;1.00
296;DHT22;132;48.770;9.200;2022-11-15T12:19:12;14.90;1.00
296;DHT22;132;48.770;9.200;2022-11-15T12:28:06;14.90;1.00
296;DHT22;132;48.770;9.200;2022-11-15T12:31:01;14.90;1.00
296;DHT22;132;48.770;9.200;2022-11-15T12:33:49;14.90;1.00
296;DHT22;132;48.770;9.200;2022-11-15T12:36:42;15.00;1.00
296;DHT22;132;48.770;9.200;2022-11-15T12:40:03;14.90;1.00
296;DHT22;132;48.770;9.200;2022-11-15T12:43:00;14.70;1.00
296;DHT22;132;48.770;9.200;2022-11-15T12:45:47;14.60;1.00
296;DHT22;132;48.770;9.200;2022-11-15T12:57:36;14.50;1.00
296;DHT22;132;48.770;9.200;2022-11-15T13:03:21;14.40;1.00
296;DHT22;132;48.770;9.200;2022-11-15T13:18:38;14.20;1.00
296;DHT22;132;48.770;9.200;2022-11-15T13:21:25;14.20;1.00
296;DHT22;132;48.770;9.200;2022-11-15T13:24:30;14.20;1.00
296;DHT22;132;48.770;9.200;2022-11-15T13:27:19;14.10;1.00
296;DHT22;132;48.770;9.200;2022-11-15T13:30:19;14.10;1.00
296;DHT22;132;48.770;9.200;2022-11-15T13:33:14;14.10;1.00
296;DHT22;132;48.770;9.200;2022-11-15T13:36:20;14.10;1.00
296;DHT22;132;48.770;9.200;2022-11-15T13:39:32;14.10;1.00
296;DHT22;132;48.770;9.200;2022-11-15T13:42:20;14.00;1.00
296;DHT22;132;48.770;9.200;2022-11-15T13:45:13;14.00;1.00
296;DHT22;132;48.770;9.200;2022-11-15T13:48:03;14.00;1.00
296;DHT22;132;48.770;9.200;2022-11-15T13:50:50;14.00;1.00
296;DHT22;132;48.770;9.200;2022-11-15T13:53:40;14.10;1.00
296;DHT22;132;48.770;9.200;2022-11-15T13:56:29;13.90;1.00
296;DHT22;132;48.770;9.200;2022-11-15T13:59:36;13.90;1.00
296;DHT22;132;48.770;9.200;2022-11-15T14:02:32;13.80;1.00
296;DHT22;132;48.770;9.200;2022-11-15T14:05:21;13.80;1.00
296;DHT22;132;48.770;9.200;2022-11-15T14:08:23;13.80;1.00
296;DHT22;132;48.770;9.200;2022-11-15T14:11:17;13.70;1.00
296;DHT22;132;48.770;9.200;2022-11-15T14:16:58;13.50;1.00
296;DHT22;132;48.770;9.200;2022-11-15T14:19:45;13.40;1.00
296;DHT22;132;48.770;9.200;2022-11-15T14:22:32;13.30;1.00
296;DHT22;132;48.770;9.200;2022-11-15T14:25:24;13.30;1.00
296;DHT22;132;48.770;9.200;2022-11-15T14:31:00;13.10;1.00
296;DHT22;132;48.770;9.200;2022-11-15T14:33:47;13.20;1.00
296;DHT22;132;48.770;9.200;2022-11-15T14:36:34;13.00;1.00
296;DHT22;132;48.770;9.200;2022-11-15T14:39:21;13.00;1.00
296;DHT22;132;48.770;9.200;2022-11-15T14:42:09;13.20;1.00
296;DHT22;132;48.770;9.200;2022-11-15T14:44:56;12.90;1.00
296;DHT22;132;48.770;9.200;2022-11-15T14:47:43;12.90;1.00
296;DHT22;132;48.770;9.200;2022-11-15T14:50:30;12.70;1.00
296;DHT22;132;48.770;9.200;2022-11-15T14:53:18;12.80;1.00
296;DHT22;132;48.770;9.200;2022-11-15T14:56:06;12.80;1.00
296;DHT22;132;48.770;9.200;2022-11-15T14:58:53;12.70;1.00
296;DHT22;132;48.770;9.200;2022-11-15T15:01:41;12.70;1.00
296;DHT22;132;48.770;9.200;2022-11-15T15:04:28;12.70;1.00
296;DHT22;132;48.770;9.200;2022-11-15T15:07:15;13.40;1.00
296;DHT22;132;48.770;9.200;2022-11-15T15:10:02;12.70;1.00
296;DHT22;132;48.770;9.200;2022-11-15T15:12:48;12.70;1.00
296;DHT22;132;48.770;9.200;2022-11-15T15:15:37;12.80;1.00
296;DHT22;132;48.770;9.200;2022-11-15T15:18:24;12.70;1.00
296;DHT22;132;48.770;9.200;2022-11-15T15:21:31;12.60;1.00
296;DHT22;132;48.770;9.200;2022-11-15T15:24:17;12.60;1.00
296;DHT22;132;48.770;9.200;2022-11-15T15:27:04;12.60;1.00
296;DHT22;132;48.770;9.200;2022-11-15T15:29:51;12.60;1.00
296;DHT22;132;48.770;9.200;2022-11-15T15:32:37;12.60;1.00
296;DHT22;132;48.770;9.200;2022-11-15T15:35:29;12.60;1.00
296;DHT22;132;48.770;9.200;2022-11-15T15:38:16;12.50;1.00
296;DHT22;132;48.770;9.200;2022-11-15T15:41:03;12.50;1.00
296;DHT22;132;48.770;9.200;2022-11-15T15:43:49;12.50;1.00
296;DHT22;132;48.770;9.200;2022-11-15T15:46:36;12.20;1.00
296;DHT22;132;48.770;9.200;2022-11-15T15:49:23;12.40;1.00
296;DHT22;132;48.770;9.200;2022-11-15T15:52:10;12.40;1.00
296;DHT22;132;48.770;9.200;2022-11-15T15:54:56;12.40;1.00
296;DHT22;132;48.770;9.200;2022-11-15T15:57:43;12.40;1.00
296;DHT22;132;48.770;9.200;2022-11-15T16:00:30;12.60;1.00
296;DHT22;132;48.770;9.200;2022-11-15T16:03:19;12.40;1.00
296;DHT22;132;48.770;9.200;2022-11-15T16:06:46;12.40;1.00
296;DHT22;132;48.770;9.200;2022-11-15T16:09:32;12.20;1.00
296;DHT22;132;48.770;9.200;2022-11-15T16:12:41;12.40;1.00
296;DHT22;132;48.770;9.200;2022-11-15T16:15:30;12.40;1.00
296;DHT22;132;48.770;9.200;2022-11-15T16:18:17;12.40;1.00
296;DHT22;132;48.770;9.200;2022-11-15T16:21:04;12.40;1.00
296;DHT22;132;48.770;9.200;2022-11-15T16:23:51;12.40;1.00
296;DHT22;132;48.770;9.200;2022-11-15T16:26:37;12.40;1.00
296;DHT22;132;48.770;9.200;2022-11-15T16:29:24;12.60;1.00
296;DHT22;132;48.770;9.200;2022-11-15T16:32:11;12.60;1.00
296;DHT22;132;48.770;9.200;2022-11-15T16:34:58;12.50;1.00
296;DHT22;132;48.770;9.200;2022-11-15T16:37:45;12.70;1.00
296;DHT22;132;48.770;9.200;2022-11-15T16:40:33;12.80;1.00
296;DHT22;132;48.770;9.200;2022-11-15T16:43:21;12.50;1.00
296;DHT22;132;48.770;9.200;2022-11-15T16:46:19;12.50;1.00
296;DHT22;132;48.770;9.200;2022-11-15T16:49:12;12.50;1.00
296;DHT22;132;48.770;9.200;2022-11-15T16:51:59;12.50;1.00
296;DHT22;132;48.770;9.200;2022-11-15T16:54:46;12.60;1.00
296;DHT22;132;48.770;9.200;2022-11-15T16:57:32;12.50;1.00
296;DHT22;132;48.770;9.200;2022-11-15T17:00:20;12.60;1.00
296;DHT22;132;48.770;9.200;2022-11-15T17:03:07;12.50;1.00
296;DHT22;132;48.770;9.200;2022-11-15T17:05:57;12.50;1.00
296;DHT22;132;48.770;9.200;2022-11-15T17:08:46;12.50;1.00
296;DHT22;132;48.770;9.200;2022-11-15T17:11:33;12.50;1.00
296;DHT22;132;48.770;9.200;2022-11-15T17:14:19;12.50;1.00
296;DHT22;132;48.770;9.200;2022-11-15T17:17:08;12.50;1.00
296;DHT22;132;48.770;9.200;2022-11-15T17:19:55;12.50;1.00
296;DHT22;132;48.770;9.200;2022-11-15T17:22:41;12.50;1.00
296;DHT22;132;48.770;9.200;2022-11-15T17:25:28;12.40;1.00
296;DHT22;132;48.770;9.200;2022-11-15T17:28:14;12.40;1.00
296;DHT22;132;48.770;9.200;2022-11-15T17:31:01;12.40;1.00
296;DHT22;132;48.770;9.200;2022-11-15T17:33:51;12.50;1.00
296;DHT22;132;48.770;9.200;2022-11-15T17:36:37;12.80;1.00
296;DHT22;132;48.770;9.200;2022-11-15T17:39:24;12.50;1.00
296;DHT22;132;48.770;9.200;2022-11-15T17:42:11;13.10;1.00
296;DHT22;132;48.770;9.200;2022-11-15T17:44:57;12.50;1.00
296;DHT22;132;48.770;9.200;2022-11-15T17:47:44;12.60;1.00
296;DHT22;132;48.770;9.200;2022-11-15T17:50:30;12.50;1.00
296;DHT22;132;48.770;9.200;2022-11-15T17:53:17;12.50;1.00
296;DHT22;132;48.770;9.200;2022-11-15T17:56:14;12.60;1.00
296;DHT22;132;48.770;9.200;2022-11-15T17:59:01;12.50;1.00
296;DHT22;132;48.770;9.200;2022-11-15T18:01:48;12.50;1.00
296;DHT22;132;48.770;9.200;2022-11-15T18:04:35;12.50;1.00
296;DHT22;132;48.770;9.200;2022-11-15T18:07:22;12.70;1.00
296;DHT22;132;48.770;9.200;2022-11-15T18:10:09;12.70;1.00
296;DHT22;132;48.770;9.200;2022-11-15T18:12:55;12.50;1.00
296;DHT22;132;48.770;9.200;2022-11-15T18:15:52;12.50;1.00
296;DHT22;132;48.770;9.200;2022-11-15T18:18:39;12.50;1.00
296;DHT22;132;48.770;9.200;2022-11-15T18:21:30;12.40;1.00
296;DHT22;132;48.770;9.200;2022-11-15T18:24:17;12.40;1.00
296;DHT22;132;48.770;9.200;2022-11-15T18:27:05;12.30;1.00
296;DHT22;132;48.770;9.200;2022-11-15T18:29:51;12.40;1.00
296;DHT22;132;48.770;9.200;2022-11-15T18:32:38;12.40;1.00
296;DHT22;132;48.770;9.200;2022-11-15T18:35:25;12.40;1.00
296;DHT22;132;48.770;9.200;2022-11-15T18:38:11;12.60;1.00
296;DHT22;132;48.770;9.200;2022-11-15T18:41:10;12.40;1.00
296;DHT22;132;48.770;9.200;2022-11-15T18:43:59;12.40;1.00
296;DHT22;132;48.770;9.200;2022-11-15T18:46:46;12.40;1.00
296;DHT22;132;48.770;9.200;2022-11-15T18:49:33;12.40;1.00
296;DHT22;132;48.770;9.200;2022-11-15T18:52:19;12.40;1.00
296;DHT22;132;48.770;9.200;2022-11-15T18:55:06;12.40;1.00
296;DHT22;132;48.770;9.200;2022-11-15T18:57:55;12.40;1.00
296;DHT22;132;48.770;9.200;2022-11-15T19:00:42;12.40;1.00
296;DHT22;132;48.770;9.200;2022-11-15T19:03:40;12.40;1.00
296;DHT22;132;48.770;9.200;2022-11-15T19:06:28;12.40;1.00
296;DHT22;132;48.770;9.200;2022-11-15T19:09:17;12.50;1.00
296;DHT22;132;48.770;9.200;2022-11-15T19:12:04;12.30;1.00
296;DHT22;132;48.770;9.200;2022-11-15T19:14:50;12.30;1.00
296;DHT22;132;48.770;9.200;2022-11-15T19:17:37;12.30;1.00
296;DHT22;132;48.770;9.200;2022-11-15T19:20:23;12.30;1.00
296;DHT22;132;48.770;9.200;2022-11-15T19:23:10;12.20;1.00
296;DHT22;132;48.770;9.200;2022-11-15T19:25:59;12.40;1.00
296;DHT22;132;48.770;9.200;2022-11-15T19:28:50;12.20;1.00
296;DHT22;132;48.770;9.200;2022-11-15T19:31:37;12.20;1.00
296;DHT22;132;48.770;9.200;2022-11-15T19:34:24;12.10;1.00
296;DHT22;132;48.770;9.200;2022-11-15T19:37:10;12.10;1.00
296;DHT22;132;48.770;9.200;2022-11-15T19:39:57;12.30;1.00
296;DHT22;132;48.770;9.200;2022-11-15T19:42:43;12.10;1.00
296;DHT22;132;48.770;9.200;2022-11-15T19:45:30;12.00;1.00
296;DHT22;132;48.770;9.200;2022-11-15T19:48:17;12.00;1.00
296;DHT22;132;48.770;9.200;2022-11-15T19:51:05;11.90;1.00
296;DHT22;132;48.770;9.200;2022-11-15T19:53:55;11.90;1.00
296;DHT22;132;48.770;9.200;2022-11-15T19:56:42;12.00;1.00
296;DHT22;132;48.770;9.200;2022-11-15T19:59:29;12.00;1.00
296;DHT22;132;48.770;9.200;2022-11-15T20:02:15;12.10;1.00
296;DHT22;132;48.770;9.200;2022-11-15T20:05:02;11.80;1.00
296;DHT22;132;48.770;9.200;2022-11-15T20:07:49;11.80;1.00
296;DHT22;132;48.770;9.200;2022-11-15T20:10:35;11.90;1.00
296;DHT22;132;48.770;9.200;2022-11-15T20:13:23;11.80;1.00
296;DHT22;132;48.770;9.200;2022-11-15T20:16:15;11.90;1.00
296;DHT22;132;48.770;9.200;2022-11-15T20:19:02;11.70;1.00
296;DHT22;132;48.770;9.200;2022-11-15T20:21:49;11.90;1.00
296;DHT22;132;48.770;9.200;2022-11-15T20:24:35;11.80;1.00
296;DHT22;132;48.770;9.200;2022-11-15T20:27:22;11.80;1.00
296;DHT22;132;48.770;9.200;2022-11-15T20:30:09;11.80;1.00
296;DHT22;132;48.770;9.200;2022-11-15T20:32:56;11.80;1.00
296;DHT22;132;48.770;9.200;2022-11-15T20:35:42;11.80;1.00
296;DHT22;132;48.770;9.200;2022-11-15T20:38:29;11.70;1.00
296;DHT22;132;48.770;9.200;2022-11-15T20:41:15;11.70;1.00
296;DHT22;132;48.770;9.200;2022-11-15T20:44:02;11.90;1.00
296;DHT22;132;48.770;9.200;2022-11-15T20:46:49;11.70;1.00
296;DHT22;132;48.770;9.200;2022-11-15T20:49:35;11.70;1.00
296;DHT22;132;48.770;9.200;2022-11-15T20:52:22;11.70;1.00
296;DHT22;132;48.770;9.200;2022-11-15T20:55:09;11.70;1.00
296;DHT22;132;48.770;9.200;2022-11-15T20:57:55;11.70;1.00
296;DHT22;132;48.770;9.200;2022-11-15T21:00:43;11.70;1.00
296;DHT22;132;48.770;9.200;2022-11-15T21:03:30;11.70;1.00
296;DHT22;132;48.770;9.200;2022-11-15T21:06:17;11.70;1.00
296;DHT22;132;48.770;9.200;2022-11-15T21:09:06;11.70;1.00
296;DHT22;132;48.770;9.200;2022-11-15T21:12:12;11.90;1.00
296;DHT22;132;48.770;9.200;2022-11-15T21:14:59;12.10;1.00
296;DHT22;132;48.770;9.200;2022-11-15T21:17:46;11.80;1.00
296;DHT22;132;48.770;9.200;2022-11-15T21:20:32;11.70;1.00
296;DHT22;132;48.770;9.200;2022-11-15T21:23:20;11.60;1.00
296;DHT22;132;48.770;9.200;2022-11-15T21:26:06;11.60;1.00
296;DHT22;132;48.770;9.200;2022-11-15T21:28:53;11.70;1.00
296;DHT22;132;48.770;9.200;2022-11-15T21:31:39;11.60;1.00
296;DHT22;132;48.770;9.200;2022-11-15T21:34:26;11.80;1.00
296;DHT22;132;48.770;9.200;2022-11-15T21:37:13;11.40;1.00
296;DHT22;132;48.770;9.200;2022-11-15T21:39:59;11.60;1.00
296;DHT22;132;48.770;9.200;2022-11-15T21:42:46;11.40;1.00
296;DHT22;132;48.770;9.200;2022-11-15T21:45:33;11.40;1.00
296;DHT22;132;48.770;9.200;2022-11-15T21:48:19;11.60;1.00
296;DHT22;132;48.770;9.200;2022-11-15T21:51:09;11.90;1.00
296;DHT22;132;48.770;9.200;2022-11-15T21:53:56;11.40;1.00
296;DHT22;132;48.770;9.200;2022-11-15T21:56:43;11.70;1.00
296;DHT22;132;48.770;9.200;2022-11-15T21:59:29;11.40;1.00
296;DHT22;132;48.770;9.200;2022-11-15T22:02:16;11.40;1.00
296;DHT22;132;48.770;9.200;2022-11-15T22:05:04;11.50;1.00
296;DHT22;132;48.770;9.200;2022-11-15T22:07:51;11.50;1.00
296;DHT22;132;48.770;9.200;2022-11-15T22:10:37;11.50;1.00
296;DHT22;132;48.770;9.200;2022-11-15T22:13:24;11.50;1.00
296;DHT22;132;48.770;9.200;2022-11-15T22:16:11;11.50;1.00